Time;durP1;ratioP1;P1;durP2;ratioP2;P2;SDS_P1;SDS_P2;PMS_P1;PMS_P2;Temp;Humidity;BMP_temperature;BMP_pressure;BME280_temperature;BME280_humidity;BME280_pressure;Samples;Min_cycle;Max_cycle;Signal;HPM_P1;HPM_P2
2022/12/26 00:02:06;;;;;;;28.55;14.30;;;;;;;-142.75;100.00;77135.28;5052917;28;20073;-65
2022/12/26 00:04:31;;;;;;;28.00;13.98;;;;;;;-142.75;100.00;77137.25;5051418;28;20516;-65
2022/12/26 00:06:57;;;;;;;24.15;12.63;;;;;;;-142.75;100.00;77127.41;5051012;28;20035;-64
2022/12/26 00:09:22;;;;;;;28.48;14.23;;;;;;;-142.75;100.00;77129.38;5053484;28;20035;-65
2022/12/26 00:11:47;;;;;;;32.92;15.23;;;;;;;-142.75;100.00;77151.03;5033212;28;20029;-63
2022/12/26 00:14:15;;;;;;;31.45;15.70;;;;;;;-142.75;100.00;77156.94;5051976;28;20051;-65
2022/12/26 00:16:42;;;;;;;29.70;14.60;;;;;;;-142.75;100.00;77139.22;5051735;28;20452;-65
2022/12/26 00:19:08;;;;;;;30.25;15.90;;;;;;;-142.75;100.00;77143.16;5034075;28;20389;-64
2022/12/26 00:21:33;;;;;;;30.98;15.52;;;;;;;-142.75;100.00;77153.00;5033747;28;20033;-65
2022/12/26 00:23:59;;;;;;;29.85;15.75;;;;;;;-142.75;100.00;77160.88;5050712;28;20031;-66
2022/12/26 00:26:26;;;;;;;;;;;;;;;-142.75;100.00;77164.81;5052740;28;20028;-63
2022/12/26 00:28:55;;;;;;;28.75;15.05;;;;;;;-142.75;100.00;77172.69;5050496;28;20770;-64
2022/12/26 00:31:25;;;;;;;27.17;14.43;;;;;;;-142.75;100.00;77158.91;5032748;28;20051;-64
2022/12/26 00:33:51;;;;;;;27.75;13.80;;;;;;;-142.75;100.00;77156.94;5051095;28;20051;-66
2022/12/26 00:36:22;;;;;;;28.10;14.63;;;;;;;-142.75;100.00;77156.94;5033464;28;20032;-64
2022/12/26 00:38:48;;;;;;;27.90;14.93;;;;;;;-142.75;100.00;77176.63;5051597;28;20035;-64
2022/12/26 00:41:15;;;;;;;27.27;14.07;;;;;;;-142.75;100.00;77145.13;5051123;28;20029;-65
2022/12/26 00:43:41;;;;;;;23.95;13.95;;;;;;;-142.75;100.00;77153.00;5050354;28;20052;-66
2022/12/26 00:46:07;;;;;;;28.73;15.45;;;;;;;-142.75;100.00;77160.88;5052673;28;20103;-66
2022/12/26 00:48:33;;;;;;;32.70;15.38;;;;;;;-142.75;100.00;77164.81;5060790;28;20081;-65
2022/12/26 00:50:59;;;;;;;28.13;14.52;;;;;;;-142.75;100.00;77153.00;5061533;28;20028;-65
2022/12/26 00:53:25;;;;;;;28.63;15.00;;;;;;;-142.75;100.00;77153.00;5043376;28;20219;-65
2022/12/26 00:55:51;;;;;;;27.02;15.02;;;;;;;-142.75;100.00;77151.03;5043714;28;20482;-65
2022/12/26 00:58:16;;;;;;;;;;;;;;;-142.75;100.00;77149.06;5060800;28;20078;-65
2022/12/26 01:00:42;;;;;;;27.38;14.27;;;;;;;-142.75;100.00;77149.06;5061256;28;19920;-65
2022/12/26 01:03:09;;;;;;;29.77;13.40;;;;;;;-142.75;100.00;77149.06;5043399;28;20086;-64
2022/12/26 01:05:35;;;;;;;24.85;13.98;;;;;;;-142.75;100.00;77153.00;5061015;28;20035;-66
2022/12/26 01:08:00;;;;;;;27.77;15.80;;;;;;;-142.75;100.00;77143.16;5042309;28;20429;-65
2022/12/26 01:10:26;;;;;;;26.70;13.80;;;;;;;-142.75;100.00;77158.91;5043323;28;20020;-65
2022/12/26 01:12:52;;;;;;;29.25;15.02;;;;;;;-142.75;100.00;77158.91;5061379;28;20028;-66
2022/12/26 01:15:18;;;;;;;30.13;13.60;;;;;;;-142.75;100.00;77158.91;5060845;28;20124;-65
2022/12/26 01:17:44;;;;;;;22.25;12.70;;;;;;;-142.75;100.00;77160.88;5060112;28;20047;-64
2022/12/26 01:20:09;;;;;;;23.15;13.23;;;;;;;-142.75;100.00;77153.00;5061090;28;20028;-66
2022/12/26 01:22:36;;;;;;;25.08;12.75;;;;;;;-142.75;100.00;77145.13;5043061;28;20123;-66
2022/12/26 01:25:01;;;;;;;25.23;13.23;;;;;;;-142.75;100.00;77149.06;5060805;28;20490;-66
2022/12/26 01:27:27;;;;;;;23.50;12.02;;;;;;;-142.75;100.00;77158.91;5042078;28;20041;-66
2022/12/26 01:29:53;;;;;;;25.05;12.65;;;;;;;-142.75;100.00;77158.91;5061101;28;20497;-66
2022/12/26 01:32:18;;;;;;;24.48;13.32;;;;;;;-142.75;100.00;77149.06;5060536;28;20079;-65
2022/12/26 01:34:43;;;;;;;24.45;12.32;;;;;;;-142.75;100.00;77143.16;5042875;28;20032;-65
2022/12/26 01:37:12;;;;;;;22.95;12.35;;;;;;;-142.75;100.00;77149.06;5041829;28;20032;-65
2022/12/26 01:39:37;;;;;;;21.60;11.98;;;;;;;-142.75;100.00;77166.78;5060512;28;20032;-65
2022/12/26 01:42:15;;;;;;;20.52;11.35;;;;;;;-142.75;100.00;77143.16;5042614;28;20670;-64
2022/12/26 01:45:02;;;;;;;19.98;11.65;;;;;;;-142.75;100.00;77160.88;5060731;28;20020;-66
2022/12/26 01:47:40;;;;;;;19.25;11.00;;;;;;;-142.75;100.00;77156.94;5041793;28;20075;-65
2022/12/26 01:50:19;;;;;;;19.90;10.30;;;;;;;-142.75;100.00;77162.84;5042770;28;20153;-66
2022/12/26 01:52:46;;;;;;;23.38;11.63;;;;;;;-142.75;100.00;77156.94;5060730;28;20040;-65
2022/12/26 01:55:15;;;;;;;19.98;11.48;;;;;;;-142.75;100.00;77153.00;5060485;28;20020;-64
2022/12/26 01:57:44;;;;;;;24.98;12.07;;;;;;;-142.75;100.00;77158.91;5041653;28;20036;-66
2022/12/26 02:00:10;;;;;;;24.98;12.10;;;;;;;-142.75;100.00;77162.84;5042662;28;20119;-66
2022/12/26 02:05:32;;;;;;;22.20;12.07;;;;;;;-142.75;100.00;77156.94;5044678;28;20682;-66
2022/12/26 02:05:33;;;;;;;32.00;13.15;;;;;;;-142.75;100.00;77154.97;5064847;28;20036;-64
2022/12/26 02:08:03;;;;;;;23.00;12.77;;;;;;;-142.75;100.00;77151.03;5063876;28;20480;-66
2022/12/26 02:10:32;;;;;;;23.58;13.43;;;;;;;-142.75;100.00;77160.88;5046465;28;20020;-65
2022/12/26 02:12:58;;;;;;;25.20;13.43;;;;;;;-142.75;100.00;77178.59;5046735;28;20035;-65
2022/12/26 02:15:24;;;;;;;23.00;13.07;;;;;;;-142.75;100.00;77176.63;5064452;28;20033;-64
2022/12/26 02:17:49;;;;;;;21.80;12.07;;;;;;;-142.75;100.00;77180.56;5045511;28;20036;-66
2022/12/26 02:20:27;;;;;;;25.35;12.30;;;;;;;-142.75;100.00;77184.50;5064326;28;20098;-66
2022/12/26 02:22:56;;;;;;;26.10;13.82;;;;;;;-142.75;100.00;77184.50;5046499;28;20039;-66
2022/12/26 02:25:42;;;;;;;22.83;13.10;;;;;;;-142.75;100.00;77180.56;5064170;28;20078;-63
2022/12/26 02:28:26;;;;;;;24.60;12.43;;;;;;;-142.75;100.00;77174.66;5063215;28;20077;-66
2022/12/26 02:31:08;;;;;;;23.02;12.18;;;;;;;-142.75;100.00;77172.69;5064774;28;20036;-65
2022/12/26 02:33:55;;;;;;;24.23;12.35;;;;;;;-142.75;100.00;77196.31;5064212;28;20051;-65
2022/12/26 02:36:33;;;;;;;22.47;12.97;;;;;;;-142.75;100.00;77231.75;5064154;28;20099;-65
2022/12/26 02:39:36;;;;;;;27.63;14.15;;;;;;;-142.75;100.00;77243.56;5063675;28;20328;-65
2022/12/26 02:42:20;;;;;;;22.83;13.43;;;;;;;-142.75;100.00;77231.75;5032467;28;20166;-65
2022/12/26 02:48:02;;;;;;;23.73;12.65;;;;;;;-142.75;100.00;77243.56;5058611;28;20556;-66
2022/12/26 03:13:35;;;;;;;26.73;15.40;;;;;;;-142.75;100.00;77231.75;5062394;28;20593;-65
2022/12/26 03:18:54;;;;;;;24.08;14.00;;;;;;;-142.75;100.00;77243.56;5063218;28;20634;-66
2022/12/26 03:21:23;;;;;;;27.77;13.82;;;;;;;-142.75;100.00;77239.63;5063105;28;20480;-66
2022/12/26 03:23:52;;;;;;;23.08;13.13;;;;;;;-142.75;100.00;77243.56;5063258;28;20028;-66
2022/12/26 03:26:40;;;;;;;26.48;13.77;;;;;;;-142.75;100.00;77251.44;5045165;28;20044;-66
2022/12/26 03:31:55;;;;;;;23.70;13.98;;;;;;;-142.75;100.00;77259.31;5063515;28;20746;-66
2022/12/26 03:34:21;;;;;;;22.35;12.05;;;;;;;-142.75;100.00;77259.31;5062796;28;20029;-62
2022/12/26 03:37:14;;;;;;;18.33;12.05;;;;;;;-142.75;100.00;77255.38;5062437;28;20035;-64
2022/12/26 04:44:23;;;;;;;9.00;5.15;;;;;;;-142.75;100.00;77275.06;5061489;28;20082;-63
2022/12/26 04:46:50;;;;;;;9.52;5.03;;;;;;;-142.75;100.00;77294.75;5061070;28;20032;-65
2022/12/26 04:52:04;;;;;;;10.65;4.00;;;;;;;-142.75;100.00;77290.81;5061914;28;20635;-66
2022/12/26 04:54:30;;;;;;;8.75;4.32;;;;;;;-142.75;100.00;77292.78;5043621;28;20447;-66
2022/12/26 04:56:56;;;;;;;8.73;4.55;;;;;;;-142.75;100.00;77288.84;5060619;28;20032;-63
2022/12/26 04:59:22;;;;;;;7.05;4.18;;;;;;;-142.75;100.00;77282.94;5061145;28;20033;-63
2022/12/26 05:10:09;;;;;;;7.25;4.35;;;;;;;-142.75;100.00;77279.00;5061248;28;20055;-66
2022/12/26 05:12:34;;;;;;;8.07;3.78;;;;;;;-142.75;100.00;77290.81;5061004;28;20405;-64
2022/12/26 05:14:59;;;;;;;8.00;3.20;;;;;;;-142.75;100.00;77284.91;5061074;28;20032;-66
2022/12/26 05:28:40;;;;;;;7.38;3.90;;;;;;;-142.75;100.00;77286.88;5060367;28;20051;-66
2022/12/26 05:31:11;;;;;;;9.02;3.22;;;;;;;-142.75;100.00;77290.81;5060904;28;20139;-66
2022/12/26 05:36:23;;;;;;;6.78;3.97;;;;;;;-142.75;100.00;77282.94;5059949;28;20071;-63
2022/12/26 05:38:48;;;;;;;7.25;3.58;;;;;;;-142.75;100.00;77294.75;5061501;28;20648;-65
2022/12/26 05:41:14;;;;;;;7.38;4.70;;;;;;;-142.75;100.00;77280.97;5060600;28;20089;-65
2022/12/26 05:43:40;;;;;;;11.15;3.85;;;;;;;-142.75;100.00;77275.06;5042738;28;20028;-64
2022/12/26 05:46:05;;;;;;;8.43;4.60;;;;;;;-142.75;100.00;77263.25;5060807;28;20591;-64
2022/12/26 05:48:31;;;;;;;8.57;4.45;;;;;;;-142.75;100.00;77267.19;5059682;28;20032;-61
2022/12/26 05:51:00;;;;;;;8.52;3.70;;;;;;;-142.75;100.00;77288.84;5060624;28;20833;-61
2022/12/26 05:53:27;;;;;;;8.20;3.83;;;;;;;-142.75;100.00;77273.09;5060572;28;20028;-66
2022/12/26 05:55:52;;;;;;;8.68;4.20;;;;;;;-142.75;100.00;77263.25;5060647;28;20029;-65
2022/12/26 05:58:17;;;;;;;5.80;3.50;;;;;;;-142.75;100.00;77275.06;5059617;28;20501;-64
2022/12/26 06:00:43;;;;;;;6.75;3.72;;;;;;;-142.75;100.00;77273.09;5060237;28;20063;-64
2022/12/26 06:03:08;;;;;;;6.45;3.28;;;;;;;-142.75;100.00;77288.84;5060451;28;20028;-64
2022/12/26 06:05:34;;;;;;;7.88;3.50;;;;;;;-142.75;100.00;77290.81;5060382;28;20082;-66
2022/12/26 06:07:59;;;;;;;7.53;3.63;;;;;;;-142.75;100.00;77294.75;5059744;28;20098;-63
2022/12/26 06:10:25;;;;;;;7.30;3.38;;;;;;;-142.75;100.00;77282.94;5042479;28;20040;-65
2022/12/26 06:12:52;;;;;;;9.27;3.70;;;;;;;-142.75;100.00;77284.91;5060721;28;20028;-64
2022/12/26 06:15:17;;;;;;;;;;;;;;;-142.75;100.00;77279.00;5060724;28;20024;-64
2022/12/26 06:17:42;;;;;;;7.07;3.63;;;;;;;-142.75;100.00;77288.84;5041840;28;19916;-65
2022/12/26 06:20:08;;;;;;;9.25;3.85;;;;;;;-142.75;100.00;77275.06;5060280;28;20074;-65
2022/12/26 06:22:33;;;;;;;6.53;3.53;;;;;;;-142.75;100.00;77277.03;5060296;28;20034;-65
2022/12/26 06:24:59;;;;;;;6.70;3.42;;;;;;;-142.75;100.00;77277.03;5060327;28;20390;-63
2022/12/26 06:27:24;;;;;;;6.82;3.53;;;;;;;-142.75;100.00;77290.81;5059385;28;20059;-66
2022/12/26 06:29:49;;;;;;;9.05;3.22;;;;;;;-142.75;100.00;77296.72;5042710;28;20028;-65
2022/12/26 06:32:15;;;;;;;6.07;3.47;;;;;;;-142.75;100.00;77282.94;5060071;28;20028;-67
2022/12/26 06:34:40;;;;;;;6.80;3.10;;;;;;;-142.75;100.00;77271.13;5060332;28;20074;-64
2022/12/26 06:37:05;;;;;;;6.37;3.57;;;;;;;-142.75;100.00;77277.03;5059098;28;20024;-64
2022/12/26 06:39:31;;;;;;;6.70;3.17;;;;;;;-142.75;100.00;77275.06;5042282;28;20768;-65
2022/12/26 06:41:56;;;;;;;7.43;3.78;;;;;;;-142.75;100.00;77259.31;5060404;28;20032;-63
2022/12/26 06:44:21;;;;;;;6.90;3.00;;;;;;;-142.75;100.00;77249.47;5060148;28;20765;-64
2022/12/26 06:46:47;;;;;;;8.55;3.17;;;;;;;-142.75;100.00;77253.41;5059580;28;20275;-65
2022/12/26 06:49:12;;;;;;;4.75;3.10;;;;;;;-142.75;100.00;77237.66;5062615;28;20040;-64
2022/12/26 06:51:37;;;;;;;6.40;3.28;;;;;;;-142.75;100.00;77271.13;5063661;28;20051;-65
2022/12/26 06:54:03;;;;;;;5.13;3.10;;;;;;;-142.75;100.00;77279.00;5063794;28;20064;-64
2022/12/26 06:56:30;;;;;;;8.30;2.38;;;;;;;-142.75;100.00;77273.09;5063544;28;20021;-65
2022/12/26 06:59:00;;;;;;;7.93;2.92;;;;;;;-142.75;100.00;77275.06;5063002;28;20405;-65
2022/12/26 07:01:27;;;;;;;5.55;2.42;;;;;;;-142.75;100.00;77259.31;5063575;28;20411;-64
2022/12/26 07:03:54;;;;;;;9.85;3.00;;;;;;;-142.75;100.00;77284.91;5045840;28;20040;-67
2022/12/26 07:06:25;;;;;;;5.95;2.85;;;;;;;-142.75;100.00;77261.28;5063539;28;20501;-65
2022/12/26 07:08:52;;;;;;;5.57;2.63;;;;;;;-142.75;100.00;77253.41;5063204;28;20032;-65
2022/12/26 07:11:23;;;;;;;10.02;2.92;;;;;;;-142.75;100.00;77247.50;5054546;28;20035;-62
2022/12/26 07:13:48;;;;;;;5.82;2.53;;;;;;;-142.75;100.00;77257.34;5043762;28;20399;-65
2022/12/26 07:16:14;;;;;;;5.95;2.67;;;;;;;-142.75;100.00;77243.56;5043395;28;20029;-65
2022/12/26 07:18:39;;;;;;;9.93;2.70;;;;;;;-142.75;100.00;77245.53;5042640;28;20047;-64
2022/12/26 07:21:11;;;;;;;12.25;2.80;;;;;;;-142.75;100.00;77253.41;5025459;28;20091;-65
2022/12/26 07:23:36;;;;;;;6.65;2.40;;;;;;;-142.75;100.00;77249.47;5025161;28;20104;-66
2022/12/26 07:26:02;;;;;;;5.97;2.38;;;;;;;-142.75;100.00;77251.44;5043008;28;20563;-65
2022/12/26 07:28:28;;;;;;;8.77;2.70;;;;;;;-142.75;100.00;77241.59;5042422;28;20033;-65
2022/12/26 07:30:54;;;;;;;4.70;2.42;;;;;;;-142.75;100.00;77251.44;5043369;28;20021;-64
2022/12/26 07:33:20;;;;;;;6.25;2.38;;;;;;;-142.75;100.00;77251.44;5043150;28;20850;-64
2022/12/26 07:35:45;;;;;;;5.50;2.53;;;;;;;-142.75;100.00;77239.63;5043048;28;20474;-67
2022/12/26 07:38:11;;;;;;;7.47;2.42;;;;;;;-142.75;100.00;77243.56;5024222;28;20025;-64
2022/12/26 07:40:36;;;;;;;;;;;;;;;-142.75;100.00;77237.66;5043707;28;20029;-65
2022/12/26 07:43:02;;;;;;;8.52;2.83;;;;;;;-142.75;100.00;77235.69;5042980;28;19955;-67
2022/12/26 07:45:28;;;;;;;7.45;2.58;;;;;;;-142.75;100.00;77225.84;5042884;28;20023;-66
2022/12/26 07:47:54;;;;;;;10.60;2.38;;;;;;;-142.75;100.00;77271.13;5024601;28;20072;-66
2022/12/26 07:50:20;;;;;;;5.70;2.35;;;;;;;-142.75;100.00;77243.56;5042999;28;20452;-66
2022/12/26 07:52:45;;;;;;;6.25;2.33;;;;;;;-142.75;100.00;77235.69;5025259;28;20029;-65
2022/12/26 07:55:10;;;;;;;5.85;2.65;;;;;;;-142.75;100.00;77237.66;5042503;28;20033;-65
2022/12/26 07:57:36;;;;;;;12.27;3.05;;;;;;;-142.75;100.00;77239.63;5023968;28;20024;-66
2022/12/26 08:00:03;;;;;;;8.20;2.22;;;;;;;-142.75;100.00;77227.81;5041915;28;20680;-65
2022/12/26 08:02:29;;;;;;;6.50;2.50;;;;;;;-142.75;100.00;77229.78;5024968;28;20368;-66
2022/12/26 08:04:54;;;;;;;6.68;2.53;;;;;;;-142.75;100.00;77229.78;5042680;28;20059;-63
2022/12/26 08:07:19;;;;;;;7.57;2.58;;;;;;;-142.75;100.00;77251.44;5041743;28;20055;-65
2022/12/26 08:09:45;;;;;;;8.25;2.58;;;;;;;-142.75;100.00;77255.38;5024602;28;20456;-65
2022/12/26 08:12:11;;;;;;;9.18;2.45;;;;;;;-142.75;100.00;77245.53;5042142;28;20369;-65
2022/12/26 08:14:37;;;;;;;7.38;2.20;;;;;;;-142.75;100.00;77255.38;5042240;28;20049;-64
2022/12/26 08:17:02;;;;;;;5.28;2.40;;;;;;;-142.75;100.00;77243.56;5023714;28;20554;-65
2022/12/26 08:19:28;;;;;;;5.00;2.45;;;;;;;-142.75;100.00;77239.63;5041716;28;20029;-65
2022/12/26 08:21:53;;;;;;;5.30;2.63;;;;;;;-142.75;100.00;77241.59;5042645;28;20032;-64
2022/12/26 08:24:18;;;;;;;5.20;2.30;;;;;;;-142.75;100.00;77251.44;5042790;28;20029;-65
2022/12/26 08:26:44;;;;;;;6.05;2.50;;;;;;;-142.75;100.00;77257.34;5041034;28;20280;-65
2022/12/26 08:29:09;;;;;;;8.80;2.93;;;;;;;-142.75;100.00;77255.38;5041498;28;20112;-65
2022/12/26 08:31:35;;;;;;;6.22;2.75;;;;;;;-142.75;100.00;77263.25;5041848;28;20271;-64
2022/12/26 08:34:00;;;;;;;11.57;2.70;;;;;;;-142.75;100.00;77277.03;5024232;28;20036;-64
2022/12/26 08:36:25;;;;;;;8.02;2.75;;;;;;;-142.75;100.00;77261.28;5041965;28;20032;-65
2022/12/26 08:38:51;;;;;;;6.00;2.72;;;;;;;-142.75;100.00;77273.09;5041361;28;20040;-65
2022/12/26 08:41:16;;;;;;;7.53;2.90;;;;;;;-142.75;100.00;77286.88;5042516;28;20474;-65
2022/12/26 08:43:42;;;;;;;7.85;3.35;;;;;;;-142.75;100.00;77284.91;5062212;28;20049;-67
2022/12/26 08:46:10;;;;;;;5.65;2.83;;;;;;;-142.75;100.00;77290.81;5061534;28;20027;-65
2022/12/26 08:48:38;;;;;;;7.07;1.85;;;;;;;-142.75;100.00;77294.75;5060733;28;20033;-65
2022/12/26 08:51:10;;;;;;;10.63;1.60;;;;;;;-142.75;100.00;77290.81;5061494;28;20037;-66
2022/12/26 08:53:35;;;;;;;7.40;1.90;;;;;;;-142.75;100.00;77304.59;5061322;28;20032;-66
2022/12/26 08:56:03;;;;;;;5.15;1.00;;;;;;;-142.75;100.00;77308.53;5061386;28;20626;-65
2022/12/26 08:58:30;;;;;;;7.43;1.38;;;;;;;-142.75;100.00;77318.38;5060883;28;20032;-67
2022/12/26 09:00:55;;;;;;;;;;;;;;;-142.75;100.00;77324.28;5062035;28;20405;-67
2022/12/26 09:03:20;;;;;;;8.55;1.60;;;;;;;-142.75;100.00;77328.22;5043443;28;19917;-66
2022/12/26 09:05:46;;;;;;;8.95;1.35;;;;;;;-142.75;100.00;77334.13;5061447;28;20123;-65
2022/12/26 09:08:12;;;;;;;13.00;1.80;;;;;;;-142.75;100.00;77326.25;5060260;28;20779;-66
2022/12/26 09:10:37;;;;;;;5.68;1.25;;;;;;;-142.75;100.00;77349.88;5061413;28;20024;-64
2022/12/26 09:13:03;;;;;;;9.45;1.33;;;;;;;-142.75;100.00;77330.19;5043463;28;20020;-65
2022/12/26 09:15:28;;;;;;;7.93;1.35;;;;;;;-142.75;100.00;77338.06;5060947;28;20050;-65
2022/12/26 09:17:53;;;;;;;12.10;1.63;;;;;;;-142.75;100.00;77347.91;5060477;28;20032;-65
2022/12/26 09:20:19;;;;;;;11.20;1.63;;;;;;;-142.75;100.00;77371.53;5043253;28;20077;-65
2022/12/26 09:22:50;;;;;;;14.13;1.75;;;;;;;-142.75;100.00;77385.31;5060714;28;20275;-65
2022/12/26 09:25:21;;;;;;;13.48;1.77;;;;;;;-142.75;100.00;77446.34;5060779;28;20532;-65
2022/12/26 09:27:47;;;;;;;11.30;2.13;;;;;;;-142.75;100.00;77446.34;5060330;28;20123;-66
2022/12/26 09:30:13;;;;;;;22.80;3.17;;;;;;;-142.75;100.00;77477.88;5061058;28;20032;-66
2022/12/26 09:32:38;;;;;;;11.95;1.45;;;;;;;-142.75;100.00;77493.63;5060897;28;20033;-65
2022/12/26 09:35:04;;;;;;;18.58;1.70;;;;;;;-142.75;100.00;77513.31;5054795;28;20087;-63
2022/12/26 09:37:29;;;;;;;8.93;1.20;;;;;;;-142.75;100.00;77523.16;5060021;28;20036;-65
2022/12/26 09:39:54;;;;;;;8.85;1.23;;;;;;;-142.75;100.00;77554.66;5054365;28;20040;-66
2022/12/26 09:42:42;;;;;;;10.80;1.55;;;;;;;-142.75;100.00;77570.41;5040760;28;20037;-64
2022/12/26 09:45:15;;;;;;;13.05;1.80;;;;;;;-142.75;100.00;77582.22;5059660;28;20031;-65
2022/12/26 09:48:10;;;;;;;7.13;1.45;;;;;;;-142.75;100.00;77574.34;5060006;28;20032;-67
2022/12/26 09:50:37;;;;;;;14.45;1.15;;;;;;;-142.75;100.00;77609.78;5060692;28;20039;-65
2022/12/26 09:53:18;;;;;;;16.30;1.90;;;;;;;-142.75;100.00;77592.06;5060704;28;20132;-65
2022/12/26 09:55:53;;;;;;;5.35;0.98;;;;;;;-142.75;100.00;77601.91;5061022;28;20037;-65
2022/12/26 09:58:32;;;;;;;5.78;0.75;;;;;;;-142.75;100.00;77601.91;5055922;28;20498;-63
2022/12/26 10:01:01;;;;;;;7.05;1.10;;;;;;;-142.75;100.00;77588.13;5049892;28;20075;-65
2022/12/26 10:03:27;;;;;;;9.82;1.08;;;;;;;-142.75;100.00;77592.06;5057625;28;20036;-65
2022/12/26 10:06:07;;;;;;;7.72;0.93;;;;;;;-142.75;100.00;77625.53;5058316;28;20080;-64
2022/12/26 10:08:50;;;;;;;7.40;0.93;;;;;;;-142.75;100.00;77645.22;5052849;28;20020;-64
2022/12/26 10:11:28;;;;;;;11.10;1.40;;;;;;;-142.75;100.00;77637.34;5035898;28;20040;-65
2022/12/26 10:14:02;;;;;;;7.22;0.98;;;;;;;-142.75;100.00;77637.34;5049337;28;20039;-63
2022/12/26 10:17:13;;;;;;;5.97;0.70;;;;;;;-142.75;100.00;77649.16;5052834;28;20032;-62
2022/12/26 10:19:54;;;;;;;2.70;0.60;;;;;;;-142.75;100.00;77639.31;5050001;28;20029;-64
2022/12/26 10:22:28;;;;;;;5.32;0.93;;;;;;;-142.75;100.00;77668.84;5050020;28;20035;-65
2022/12/26 10:24:57;;;;;;;17.05;1.67;;;;;;;-142.75;100.00;77653.09;5040796;28;20517;-65
2022/12/26 10:27:26;;;;;;;8.52;1.00;;;;;;;-142.75;100.00;77666.88;5052149;28;20025;-65
2022/12/26 10:29:57;;;;;;;9.02;0.80;;;;;;;-142.75;100.00;77678.69;5053910;28;20030;-64
2022/12/26 10:32:33;;;;;;;12.77;0.95;;;;;;;-142.75;100.00;77684.59;5036781;28;20086;-65
2022/12/26 10:35:00;;;;;;;4.87;1.33;;;;;;;-142.75;100.00;77686.56;5055442;28;20037;-66
2022/12/26 10:37:39;;;;;;;14.23;1.40;;;;;;;-142.75;100.00;77696.41;5035562;28;20028;-66
2022/12/26 10:40:07;;;;;;;9.05;1.13;;;;;;;-142.75;100.00;77720.03;5052938;28;20032;-64
2022/12/26 10:42:37;;;;;;;3.88;0.95;;;;;;;-142.75;100.00;77696.41;5053358;28;20520;-65
2022/12/26 10:45:25;;;;;;;6.18;1.13;;;;;;;-142.75;100.00;77700.34;5052410;28;20760;-65
2022/12/26 10:47:52;;;;;;;5.95;0.95;;;;;;;-142.75;100.00;77712.16;5053231;28;20029;-66
2022/12/26 10:50:23;;;;;;;4.60;1.00;;;;;;;-142.75;100.00;77700.34;5052449;28;20064;-64
2022/12/26 10:52:49;;;;;;;5.10;0.77;;;;;;;-142.75;100.00;77700.34;5053573;28;20056;-66
2022/12/26 10:55:17;;;;;;;11.65;1.70;;;;;;;-142.75;100.00;77700.34;5052701;28;20113;-64
2022/12/26 10:57:46;;;;;;;5.63;0.60;;;;;;;-142.75;100.00;77692.47;5032240;28;20028;-64
2022/12/26 11:00:27;;;;;;;9.40;1.02;;;;;;;-142.75;100.00;77704.28;5043839;28;20035;-65
2022/12/26 11:03:01;;;;;;;5.28;0.88;;;;;;;-142.75;100.00;77672.78;5054442;28;20033;-64
2022/12/26 11:05:26;;;;;;;11.95;1.67;;;;;;;-142.75;100.00;77672.78;5054580;28;20028;-64
2022/12/26 11:07:55;;;;;;;3.30;0.90;;;;;;;-142.75;100.00;77672.78;5049664;28;20079;-66
2022/12/26 11:10:25;;;;;;;15.60;0.82;;;;;;;-142.75;100.00;77672.78;5043541;28;20032;-62
2022/12/26 11:12:52;;;;;;;6.28;0.75;;;;;;;-142.75;100.00;77655.06;5052226;28;20082;-66
2022/12/26 11:15:38;;;;;;;2.95;0.80;;;;;;;-142.75;100.00;77684.59;5051422;28;20025;-65
2022/12/26 11:18:16;;;;;;;9.05;0.65;;;;;;;-142.75;100.00;77672.78;5052764;28;20504;-65
2022/12/26 11:20:42;;;;;;;7.13;0.75;;;;;;;-142.75;100.00;77690.50;5061498;28;20711;-65
2022/12/26 11:23:24;;;;;;;;;;;;;;;-142.75;100.00;77633.41;5063812;28;20027;-64
2022/12/26 11:25:55;;;;;;;4.78;0.65;;;;;;;-142.75;100.00;77601.91;5045516;28;19969;-65
2022/12/26 11:28:31;;;;;;;7.80;1.08;;;;;;;-142.75;100.00;77578.28;5062285;28;20031;-64
2022/12/26 11:30:59;;;;;;;4.05;0.80;;;;;;;-142.75;100.00;77542.84;5062986;28;20449;-62
2022/12/26 11:33:44;;;;;;;4.95;0.90;;;;;;;-142.75;100.00;77464.09;5047746;28;20033;-66
2022/12/26 11:36:18;;;;;;;3.78;0.80;;;;;;;-142.75;100.00;77416.81;5045731;28;20012;-63
2022/12/26 11:38:47;;;;;;;6.88;1.10;;;;;;;-142.75;100.00;77432.56;5088877;22;20047;-66
2022/12/26 11:41:33;;;;;;;6.15;0.75;;;;;;;-142.75;100.00;77434.53;5082965;28;20456;-67
2022/12/26 11:44:04;;;;;;;3.20;0.50;;;;;;;-142.75;100.00;77393.19;5102059;28;20034;-66
2022/12/26 11:46:38;;;;;;;7.18;0.93;;;;;;;-142.75;100.00;77361.69;5103092;28;20023;-66
2022/12/26 11:49:05;;;;;;;6.90;0.95;;;;;;;-142.75;100.00;77342.00;5103254;28;20035;-67
2022/12/26 11:51:41;;;;;;;6.88;0.57;;;;;;;-142.75;100.00;77292.78;5103217;28;20027;-66
2022/12/26 11:54:21;;;;;;;5.22;0.73;;;;;;;-142.75;100.00;77342.00;5084868;28;20027;-66
2022/12/26 11:56:47;;;;;;;4.85;0.73;;;;;;;-142.75;100.00;77361.69;5079190;28;20110;-66
2022/12/26 11:59:22;;;;;;;3.92;0.47;;;;;;;-142.75;100.00;77401.06;5085656;28;20028;-66
2022/12/26 12:02:20;;;;;;;5.07;0.73;;;;;;;-142.75;100.00;77448.34;5060828;28;20031;-67
2022/12/26 12:04:46;;;;;;;4.72;0.65;;;;;;;-142.75;100.00;77468.03;5076936;28;20106;-66
2022/12/26 12:07:17;;;;;;;2.85;0.45;;;;;;;-142.75;100.00;77471.97;5084752;28;20057;-66
2022/12/26 12:09:51;;;;;;;2.53;0.30;;;;;;;-142.75;100.00;77446.34;5083889;28;20043;-66
2022/12/26 12:12:19;;;;;;;4.30;0.50;;;;;;;-142.75;100.00;77481.81;5060372;28;20030;-67
2022/12/26 12:14:56;;;;;;;7.03;0.70;;;;;;;-142.75;100.00;77452.25;5080705;28;20079;-67
2022/12/26 12:17:49;;;;;;;4.53;0.50;;;;;;;-142.75;100.00;77475.91;5086902;28;20386;-67
2022/12/26 12:20:33;;;;;;;1.58;0.40;;;;;;;-142.75;100.00;77487.72;5090469;28;20024;-66
2022/12/26 12:23:05;;;;;;;2.17;0.45;;;;;;;-142.75;100.00;77464.09;5072617;28;20032;-67
2022/12/26 12:25:43;;;;;;;7.18;0.50;;;;;;;-142.75;100.00;77418.78;5091404;28;20057;-67
2022/12/26 12:28:24;;;;;;;3.08;0.65;;;;;;;-142.75;100.00;77363.66;5088141;28;20560;-66
2022/12/26 12:31:13;;;;;;;4.57;1.05;;;;;;;-142.75;100.00;77353.81;5090823;28;20030;-67
2022/12/26 12:33:52;;;;;;;4.30;0.57;;;;;;;-142.75;100.00;77340.03;5082219;28;20039;-66
2022/12/26 12:36:44;;;;;;;4.03;0.50;;;;;;;-142.75;100.00;77342.00;5085848;28;20544;-66
2022/12/26 12:39:18;;;;;;;1.20;0.32;;;;;;;-142.75;100.00;77347.91;5087994;28;20079;-67
2022/12/26 12:42:20;;;;;;;1.65;0.30;;;;;;;-142.75;100.00;77381.38;5088646;28;20133;-66
2022/12/26 12:45:05;;;;;;;5.10;0.57;;;;;;;-142.75;100.00;77406.97;5088286;28;20042;-67
2022/12/26 12:47:56;;;;;;;2.97;0.50;;;;;;;-142.75;100.00;77401.06;5087926;28;20098;-66
2022/12/26 12:50:30;;;;;;;1.67;0.52;;;;;;;-142.75;100.00;77410.91;5089373;28;20020;-66
2022/12/26 12:53:11;;;;;;;5.80;0.70;;;;;;;-142.75;100.00;77365.63;5090647;28;20115;-67
2022/12/26 12:55:58;;;;;;;7.90;2.05;;;;;;;-142.75;100.00;77379.41;5086204;28;20028;-67
2022/12/26 12:58:41;;;;;;;1.95;0.50;;;;;;;-142.75;100.00;77397.13;5086192;28;20039;-67
2022/12/26 13:01:13;;;;;;;4.10;0.30;;;;;;;-142.75;100.00;77351.84;5078712;28;20111;-67
2022/12/26 13:03:47;;;;;;;1.40;0.45;;;;;;;-142.75;100.00;77369.56;5088041;28;20088;-67
2022/12/26 13:06:23;;;;;;;6.80;0.60;;;;;;;-142.75;100.00;77371.53;5089498;28;20028;-66
2022/12/26 13:08:52;;;;;;;2.95;0.68;;;;;;;-142.75;100.00;77361.69;5091781;28;20044;-68
2022/12/26 13:11:30;;;;;;;5.10;0.57;;;;;;;-142.75;100.00;77334.13;5087946;28;20086;-67
2022/12/26 13:14:19;;;;;;;2.38;0.40;;;;;;;-142.75;100.00;77365.63;5073370;28;20392;-67
2022/12/26 13:16:50;;;;;;;2.78;0.50;;;;;;;-142.75;100.00;77385.31;5086570;28;20031;-67
2022/12/26 13:19:21;;;;;;;6.78;0.70;;;;;;;-142.75;100.00;77450.28;5086636;28;20024;-67
2022/12/26 13:21:49;;;;;;;4.15;0.80;;;;;;;-142.75;100.00;77473.94;5092623;28;20539;-67
2022/12/26 13:24:27;;;;;;;6.13;0.88;;;;;;;-142.75;100.00;77499.53;5074836;28;20028;-67